sensor_id;sensor_type;location;lat;lon;timestamp;temperature;humidity
65239;SHT30;51827;51.186;6.926;2023-05-07T00:00:31;21.84;55.51
65239;SHT30;51827;51.186;6.926;2023-05-07T00:01:32;21.83;55.47
65239;SHT30;51827;51.186;6.926;2023-05-07T00:02:32;21.81;55.51
65239;SHT30;51827;51.186;6.926;2023-05-07T00:03:32;21.84;55.48
65239;SHT30;51827;51.186;6.926;2023-05-07T00:04:32;21.81;55.47
65239;SHT30;51827;51.186;6.926;2023-05-07T00:05:32;21.83;55.47
65239;SHT30;51827;51.186;6.926;2023-05-07T00:06:33;21.81;55.48
65239;SHT30;51827;51.186;6.926;2023-05-07T00:07:33;21.81;55.50
65239;SHT30;51827;51.186;6.926;2023-05-07T00:08:33;21.83;55.53
65239;SHT30;51827;51.186;6.926;2023-05-07T00:09:33;21.83;55.45
65239;SHT30;51827;51.186;6.926;2023-05-07T00:10:33;21.83;55.47
65239;SHT30;51827;51.186;6.926;2023-05-07T00:11:33;21.81;55.47
65239;SHT30;51827;51.186;6.926;2023-05-07T00:12:34;21.81;55.49
65239;SHT30;51827;51.186;6.926;2023-05-07T00:13:34;21.80;55.50
65239;SHT30;51827;51.186;6.926;2023-05-07T00:14:34;21.80;55.49
65239;SHT30;51827;51.186;6.926;2023-05-07T00:15:34;21.81;55.50
65239;SHT30;51827;51.186;6.926;2023-05-07T00:16:34;21.80;55.49
65239;SHT30;51827;51.186;6.926;2023-05-07T00:17:35;21.81;55.50
65239;SHT30;51827;51.186;6.926;2023-05-07T00:18:35;21.81;55.52
65239;SHT30;51827;51.186;6.926;2023-05-07T00:19:35;21.81;55.50
65239;SHT30;51827;51.186;6.926;2023-05-07T00:20:35;21.80;55.50
65239;SHT30;51827;51.186;6.926;2023-05-07T00:21:35;21.78;55.50
65239;SHT30;51827;51.186;6.926;2023-05-07T00:22:36;21.80;55.44
65239;SHT30;51827;51.186;6.926;2023-05-07T00:23:36;21.77;55.45
65239;SHT30;51827;51.186;6.926;2023-05-07T00:24:36;21.80;55.50
65239;SHT30;51827;51.186;6.926;2023-05-07T00:25:36;21.80;55.51
65239;SHT30;51827;51.186;6.926;2023-05-07T00:26:36;21.80;55.49
65239;SHT30;51827;51.186;6.926;2023-05-07T00:27:36;21.78;55.48
65239;SHT30;51827;51.186;6.926;2023-05-07T00:28:37;21.81;55.50
65239;SHT30;51827;51.186;6.926;2023-05-07T00:29:37;21.80;55.47
65239;SHT30;51827;51.186;6.926;2023-05-07T00:30:37;21.80;55.51
65239;SHT30;51827;51.186;6.926;2023-05-07T00:31:37;21.80;55.46
65239;SHT30;51827;51.186;6.926;2023-05-07T00:32:37;21.77;55.47
65239;SHT30;51827;51.186;6.926;2023-05-07T00:33:38;21.78;55.47
65239;SHT30;51827;51.186;6.926;2023-05-07T00:34:38;21.77;55.50
65239;SHT30;51827;51.186;6.926;2023-05-07T00:35:38;21.80;55.44
65239;SHT30;51827;51.186;6.926;2023-05-07T00:36:38;21.77;55.50
65239;SHT30;51827;51.186;6.926;2023-05-07T00:37:39;21.78;55.47
65239;SHT30;51827;51.186;6.926;2023-05-07T00:38:39;21.78;55.50
65239;SHT30;51827;51.186;6.926;2023-05-07T00:39:39;21.80;55.50
65239;SHT30;51827;51.186;6.926;2023-05-07T00:40:39;21.78;55.46
65239;SHT30;51827;51.186;6.926;2023-05-07T00:41:39;21.80;55.44
65239;SHT30;51827;51.186;6.926;2023-05-07T00:42:39;21.77;55.47
65239;SHT30;51827;51.186;6.926;2023-05-07T00:43:40;21.78;55.45
65239;SHT30;51827;51.186;6.926;2023-05-07T00:44:40;21.78;55.52
65239;SHT30;51827;51.186;6.926;2023-05-07T00:45:40;21.78;55.49
65239;SHT30;51827;51.186;6.926;2023-05-07T00:46:40;21.77;55.50
65239;SHT30;51827;51.186;6.926;2023-05-07T00:47:40;21.78;55.49
65239;SHT30;51827;51.186;6.926;2023-05-07T00:48:41;21.77;55.56
65239;SHT30;51827;51.186;6.926;2023-05-07T00:49:42;21.76;55.55
65239;SHT30;51827;51.186;6.926;2023-05-07T00:50:42;21.78;55.51
65239;SHT30;51827;51.186;6.926;2023-05-07T00:51:42;21.77;55.50
65239;SHT30;51827;51.186;6.926;2023-05-07T00:52:43;21.78;55.51
65239;SHT30;51827;51.186;6.926;2023-05-07T00:53:43;21.77;55.47
65239;SHT30;51827;51.186;6.926;2023-05-07T00:54:43;21.77;55.53
65239;SHT30;51827;51.186;6.926;2023-05-07T00:55:44;21.80;55.50
65239;SHT30;51827;51.186;6.926;2023-05-07T00:56:44;21.76;55.52
65239;SHT30;51827;51.186;6.926;2023-05-07T00:57:45;21.78;55.47
65239;SHT30;51827;51.186;6.926;2023-05-07T00:58:45;21.78;55.49
65239;SHT30;51827;51.186;6.926;2023-05-07T00:59:45;21.77;55.54
65239;SHT30;51827;51.186;6.926;2023-05-07T01:00:45;21.76;55.50
65239;SHT30;51827;51.186;6.926;2023-05-07T01:01:45;21.76;55.45
65239;SHT30;51827;51.186;6.926;2023-05-07T01:02:46;21.76;55.49
65239;SHT30;51827;51.186;6.926;2023-05-07T01:03:46;21.76;55.53
65239;SHT30;51827;51.186;6.926;2023-05-07T01:04:46;21.77;55.48
65239;SHT30;51827;51.186;6.926;2023-05-07T01:05:46;21.77;55.52
65239;SHT30;51827;51.186;6.926;2023-05-07T01:06:47;21.77;55.49
65239;SHT30;51827;51.186;6.926;2023-05-07T01:07:47;21.77;55.49
65239;SHT30;51827;51.186;6.926;2023-05-07T01:08:48;21.76;55.52
65239;SHT30;51827;51.186;6.926;2023-05-07T01:09:49;21.77;55.48
65239;SHT30;51827;51.186;6.926;2023-05-07T01:10:49;21.77;55.50
65239;SHT30;51827;51.186;6.926;2023-05-07T01:11:50;21.78;55.52
65239;SHT30;51827;51.186;6.926;2023-05-07T01:12:50;21.78;55.54
65239;SHT30;51827;51.186;6.926;2023-05-07T01:13:51;21.77;55.53
65239;SHT30;51827;51.186;6.926;2023-05-07T01:14:51;21.76;55.56
65239;SHT30;51827;51.186;6.926;2023-05-07T01:15:52;21.80;55.53
65239;SHT30;51827;51.186;6.926;2023-05-07T01:16:52;21.76;55.54
65239;SHT30;51827;51.186;6.926;2023-05-07T01:17:52;21.76;55.52
65239;SHT30;51827;51.186;6.926;2023-05-07T01:18:53;21.76;55.53
65239;SHT30;51827;51.186;6.926;2023-05-07T01:19:53;21.74;55.53
65239;SHT30;51827;51.186;6.926;2023-05-07T01:20:53;21.77;55.45
65239;SHT30;51827;51.186;6.926;2023-05-07T01:21:56;21.74;55.51
65239;SHT30;51827;51.186;6.926;2023-05-07T01:22:59;21.76;55.49
65239;SHT30;51827;51.186;6.926;2023-05-07T01:24:00;21.74;55.53
65239;SHT30;51827;51.186;6.926;2023-05-07T01:25:00;21.76;55.53
65239;SHT30;51827;51.186;6.926;2023-05-07T01:26:00;21.74;55.50
65239;SHT30;51827;51.186;6.926;2023-05-07T01:27:01;21.74;55.54
65239;SHT30;51827;51.186;6.926;2023-05-07T01:28:01;21.74;55.48
65239;SHT30;51827;51.186;6.926;2023-05-07T01:29:01;21.76;55.55
65239;SHT30;51827;51.186;6.926;2023-05-07T01:30:01;21.77;55.55
65239;SHT30;51827;51.186;6.926;2023-05-07T01:31:02;21.74;55.54
65239;SHT30;51827;51.186;6.926;2023-05-07T01:32:03;21.76;55.53
65239;SHT30;51827;51.186;6.926;2023-05-07T01:33:04;21.74;55.53
65239;SHT30;51827;51.186;6.926;2023-05-07T01:34:06;21.74;55.54
65239;SHT30;51827;51.186;6.926;2023-05-07T01:35:09;21.73;55.54
65239;SHT30;51827;51.186;6.926;2023-05-07T01:36:11;21.73;55.50
65239;SHT30;51827;51.186;6.926;2023-05-07T01:37:11;21.74;55.51
65239;SHT30;51827;51.186;6.926;2023-05-07T01:38:12;21.74;55.52
65239;SHT30;51827;51.186;6.926;2023-05-07T01:39:13;21.71;55.54
65239;SHT30;51827;51.186;6.926;2023-05-07T01:40:13;21.73;55.51
65239;SHT30;51827;51.186;6.926;2023-05-07T01:41:13;21.74;55.51
65239;SHT30;51827;51.186;6.926;2023-05-07T01:42:14;21.74;55.51
65239;SHT30;51827;51.186;6.926;2023-05-07T01:43:14;21.74;55.48
65239;SHT30;51827;51.186;6.926;2023-05-07T01:44:14;21.74;55.46
65239;SHT30;51827;51.186;6.926;2023-05-07T01:45:15;21.74;55.46
65239;SHT30;51827;51.186;6.926;2023-05-07T01:46:15;21.71;55.53
65239;SHT30;51827;51.186;6.926;2023-05-07T01:47:16;21.73;55.47
65239;SHT30;51827;51.186;6.926;2023-05-07T01:48:16;21.73;55.48
65239;SHT30;51827;51.186;6.926;2023-05-07T01:49:17;21.73;55.50
65239;SHT30;51827;51.186;6.926;2023-05-07T01:50:18;21.71;55.46
65239;SHT30;51827;51.186;6.926;2023-05-07T01:51:19;21.76;55.49
65239;SHT30;51827;51.186;6.926;2023-05-07T01:52:19;21.70;55.54
65239;SHT30;51827;51.186;6.926;2023-05-07T01:53:19;21.74;55.56
65239;SHT30;51827;51.186;6.926;2023-05-07T01:54:19;21.74;55.55
65239;SHT30;51827;51.186;6.926;2023-05-07T01:55:24;21.74;55.52
65239;SHT30;51827;51.186;6.926;2023-05-07T01:56:25;21.73;55.56
65239;SHT30;51827;51.186;6.926;2023-05-07T01:57:25;21.73;55.50
65239;SHT30;51827;51.186;6.926;2023-05-07T01:58:25;21.73;55.54
65239;SHT30;51827;51.186;6.926;2023-05-07T01:59:25;21.73;55.55
65239;SHT30;51827;51.186;6.926;2023-05-07T02:00:25;21.71;55.53
65239;SHT30;51827;51.186;6.926;2023-05-07T02:01:26;21.70;55.54
65239;SHT30;51827;51.186;6.926;2023-05-07T02:02:26;21.73;55.50
65239;SHT30;51827;51.186;6.926;2023-05-07T02:03:26;21.73;55.52
65239;SHT30;51827;51.186;6.926;2023-05-07T02:04:26;21.71;55.51
65239;SHT30;51827;51.186;6.926;2023-05-07T02:05:26;21.73;55.50
65239;SHT30;51827;51.186;6.926;2023-05-07T02:06:26;21.71;55.50
65239;SHT30;51827;51.186;6.926;2023-05-07T02:07:27;21.71;55.53
65239;SHT30;51827;51.186;6.926;2023-05-07T02:08:27;21.70;55.52
65239;SHT30;51827;51.186;6.926;2023-05-07T02:09:27;21.71;55.51
65239;SHT30;51827;51.186;6.926;2023-05-07T02:10:28;21.71;55.51
65239;SHT30;51827;51.186;6.926;2023-05-07T02:11:28;21.71;55.53
65239;SHT30;51827;51.186;6.926;2023-05-07T02:12:28;21.71;55.54
65239;SHT30;51827;51.186;6.926;2023-05-07T02:13:29;21.70;55.52
65239;SHT30;51827;51.186;6.926;2023-05-07T02:14:29;21.71;55.52
65239;SHT30;51827;51.186;6.926;2023-05-07T02:15:29;21.71;55.53
65239;SHT30;51827;51.186;6.926;2023-05-07T02:16:30;21.73;55.54
65239;SHT30;51827;51.186;6.926;2023-05-07T02:17:30;21.71;55.53
65239;SHT30;51827;51.186;6.926;2023-05-07T02:18:30;21.71;55.54
65239;SHT30;51827;51.186;6.926;2023-05-07T02:19:30;21.70;55.53
65239;SHT30;51827;51.186;6.926;2023-05-07T02:20:30;21.70;55.52
65239;SHT30;51827;51.186;6.926;2023-05-07T02:21:30;21.70;55.53
65239;SHT30;51827;51.186;6.926;2023-05-07T02:22:31;21.70;55.51
65239;SHT30;51827;51.186;6.926;2023-05-07T02:23:31;21.73;55.50
65239;SHT30;51827;51.186;6.926;2023-05-07T02:24:31;21.71;55.54
65239;SHT30;51827;51.186;6.926;2023-05-07T02:25:31;21.70;55.55
65239;SHT30;51827;51.186;6.926;2023-05-07T02:26:31;21.71;55.52
65239;SHT30;51827;51.186;6.926;2023-05-07T02:27:31;21.70;55.51
65239;SHT30;51827;51.186;6.926;2023-05-07T02:28:31;21.69;55.50
65239;SHT30;51827;51.186;6.926;2023-05-07T02:29:32;21.70;55.50
65239;SHT30;51827;51.186;6.926;2023-05-07T02:30:32;21.73;55.51
65239;SHT30;51827;51.186;6.926;2023-05-07T02:31:32;21.73;55.46
65239;SHT30;51827;51.186;6.926;2023-05-07T02:32:32;21.71;55.48
65239;SHT30;51827;51.186;6.926;2023-05-07T02:33:32;21.70;55.54
65239;SHT30;51827;51.186;6.926;2023-05-07T02:34:32;21.69;55.51
65239;SHT30;51827;51.186;6.926;2023-05-07T02:35:33;21.67;55.50
65239;SHT30;51827;51.186;6.926;2023-05-07T02:36:33;21.67;55.48
65239;SHT30;51827;51.186;6.926;2023-05-07T02:37:33;21.69;55.51
65239;SHT30;51827;51.186;6.926;2023-05-07T02:38:33;21.67;55.50
65239;SHT30;51827;51.186;6.926;2023-05-07T02:39:34;21.70;55.47
65239;SHT30;51827;51.186;6.926;2023-05-07T02:40:34;21.70;55.44
65239;SHT30;51827;51.186;6.926;2023-05-07T02:41:34;21.73;55.45
65239;SHT30;51827;51.186;6.926;2023-05-07T02:42:34;21.71;55.47
65239;SHT30;51827;51.186;6.926;2023-05-07T02:43:34;21.69;55.47
65239;SHT30;51827;51.186;6.926;2023-05-07T02:44:35;21.69;55.50
65239;SHT30;51827;51.186;6.926;2023-05-07T02:45:35;21.69;55.48
65239;SHT30;51827;51.186;6.926;2023-05-07T02:46:35;21.69;55.50
65239;SHT30;51827;51.186;6.926;2023-05-07T02:47:35;21.70;55.57
65239;SHT30;51827;51.186;6.926;2023-05-07T02:48:35;21.70;55.52
65239;SHT30;51827;51.186;6.926;2023-05-07T02:49:35;21.69;55.50
65239;SHT30;51827;51.186;6.926;2023-05-07T02:50:36;21.67;55.52
65239;SHT30;51827;51.186;6.926;2023-05-07T02:51:36;21.67;55.49
65239;SHT30;51827;51.186;6.926;2023-05-07T02:52:36;21.71;55.52
65239;SHT30;51827;51.186;6.926;2023-05-07T02:53:36;21.70;55.52
65239;SHT30;51827;51.186;6.926;2023-05-07T02:54:36;21.67;55.52
65239;SHT30;51827;51.186;6.926;2023-05-07T02:55:36;21.67;55.50
65239;SHT30;51827;51.186;6.926;2023-05-07T02:56:36;21.69;55.50
65239;SHT30;51827;51.186;6.926;2023-05-07T02:57:37;21.69;55.52
65239;SHT30;51827;51.186;6.926;2023-05-07T02:58:37;21.70;55.48
65239;SHT30;51827;51.186;6.926;2023-05-07T02:59:37;21.67;55.50
65239;SHT30;51827;51.186;6.926;2023-05-07T03:00:37;21.69;55.49
65239;SHT30;51827;51.186;6.926;2023-05-07T03:01:37;21.67;55.54
65239;SHT30;51827;51.186;6.926;2023-05-07T03:02:37;21.67;55.53
65239;SHT30;51827;51.186;6.926;2023-05-07T03:03:38;21.67;55.54
65239;SHT30;51827;51.186;6.926;2023-05-07T03:04:39;21.67;55.53
65239;SHT30;51827;51.186;6.926;2023-05-07T03:05:39;21.66;55.50
65239;SHT30;51827;51.186;6.926;2023-05-07T03:06:39;21.66;55.50
65239;SHT30;51827;51.186;6.926;2023-05-07T03:07:40;21.67;55.50
65239;SHT30;51827;51.186;6.926;2023-05-07T03:08:40;21.66;55.53
65239;SHT30;51827;51.186;6.926;2023-05-07T03:09:40;21.67;55.47
65239;SHT30;51827;51.186;6.926;2023-05-07T03:10:40;21.67;55.51
65239;SHT30;51827;51.186;6.926;2023-05-07T03:11:40;21.67;55.48
65239;SHT30;51827;51.186;6.926;2023-05-07T03:12:40;21.67;55.51
65239;SHT30;51827;51.186;6.926;2023-05-07T03:13:40;21.67;55.49
65239;SHT30;51827;51.186;6.926;2023-05-07T03:14:43;21.69;55.48
65239;SHT30;51827;51.186;6.926;2023-05-07T03:15:44;21.66;55.47
65239;SHT30;51827;51.186;6.926;2023-05-07T03:16:44;21.67;55.51
65239;SHT30;51827;51.186;6.926;2023-05-07T03:17:44;21.66;55.46
65239;SHT30;51827;51.186;6.926;2023-05-07T03:18:44;21.69;55.49
65239;SHT30;51827;51.186;6.926;2023-05-07T03:19:44;21.64;55.50
65239;SHT30;51827;51.186;6.926;2023-05-07T03:20:44;21.69;55.45
65239;SHT30;51827;51.186;6.926;2023-05-07T03:21:44;21.69;55.46
65239;SHT30;51827;51.186;6.926;2023-05-07T03:22:45;21.66;55.48
65239;SHT30;51827;51.186;6.926;2023-05-07T03:23:48;21.67;55.47
65239;SHT30;51827;51.186;6.926;2023-05-07T03:24:48;21.66;55.47
65239;SHT30;51827;51.186;6.926;2023-05-07T03:25:48;21.66;55.43
65239;SHT30;51827;51.186;6.926;2023-05-07T03:26:48;21.64;55.47
65239;SHT30;51827;51.186;6.926;2023-05-07T03:27:48;21.67;55.47
65239;SHT30;51827;51.186;6.926;2023-05-07T03:28:48;21.64;55.47
65239;SHT30;51827;51.186;6.926;2023-05-07T03:29:48;21.66;55.45
65239;SHT30;51827;51.186;6.926;2023-05-07T03:30:49;21.66;55.47
65239;SHT30;51827;51.186;6.926;2023-05-07T03:31:49;21.66;55.49
65239;SHT30;51827;51.186;6.926;2023-05-07T03:32:49;21.64;55.47
65239;SHT30;51827;51.186;6.926;2023-05-07T03:33:53;21.67;55.48
65239;SHT30;51827;51.186;6.926;2023-05-07T03:34:53;21.63;55.47
65239;SHT30;51827;51.186;6.926;2023-05-07T03:35:53;21.64;55.47
65239;SHT30;51827;51.186;6.926;2023-05-07T03:36:53;21.63;55.47
65239;SHT30;51827;51.186;6.926;2023-05-07T03:37:54;21.64;55.45
65239;SHT30;51827;51.186;6.926;2023-05-07T03:38:54;21.63;55.50
65239;SHT30;51827;51.186;6.926;2023-05-07T03:39:54;21.66;55.47
65239;SHT30;51827;51.186;6.926;2023-05-07T03:40:54;21.64;55.44
65239;SHT30;51827;51.186;6.926;2023-05-07T03:41:54;21.63;55.48
65239;SHT30;51827;51.186;6.926;2023-05-07T03:42:54;21.64;55.49
65239;SHT30;51827;51.186;6.926;2023-05-07T03:43:55;21.63;55.48
65239;SHT30;51827;51.186;6.926;2023-05-07T03:44:55;21.63;55.44
65239;SHT30;51827;51.186;6.926;2023-05-07T03:45:55;21.63;55.48
65239;SHT30;51827;51.186;6.926;2023-05-07T03:46:55;21.63;55.48
65239;SHT30;51827;51.186;6.926;2023-05-07T03:47:55;21.64;55.45
65239;SHT30;51827;51.186;6.926;2023-05-07T03:48:55;21.64;55.43
65239;SHT30;51827;51.186;6.926;2023-05-07T03:49:55;21.63;55.43
65239;SHT30;51827;51.186;6.926;2023-05-07T03:50:57;21.63;55.45
65239;SHT30;51827;51.186;6.926;2023-05-07T03:51:57;21.61;55.47
65239;SHT30;51827;51.186;6.926;2023-05-07T03:52:57;21.63;55.47
65239;SHT30;51827;51.186;6.926;2023-05-07T03:53:57;21.63;55.47
65239;SHT30;51827;51.186;6.926;2023-05-07T03:54:57;21.63;55.47
65239;SHT30;51827;51.186;6.926;2023-05-07T03:55:57;21.63;55.48
65239;SHT30;51827;51.186;6.926;2023-05-07T03:56:58;21.60;55.47
65239;SHT30;51827;51.186;6.926;2023-05-07T03:57:58;21.63;55.45
65239;SHT30;51827;51.186;6.926;2023-05-07T03:58:58;21.63;55.43
65239;SHT30;51827;51.186;6.926;2023-05-07T03:59:58;21.63;55.41
65239;SHT30;51827;51.186;6.926;2023-05-07T04:00:58;21.63;55.43
65239;SHT30;51827;51.186;6.926;2023-05-07T04:01:58;21.61;55.46
65239;SHT30;51827;51.186;6.926;2023-05-07T04:02:58;21.64;55.49
65239;SHT30;51827;51.186;6.926;2023-05-07T04:03:59;21.63;55.45
65239;SHT30;51827;51.186;6.926;2023-05-07T04:04:59;21.60;55.43
65239;SHT30;51827;51.186;6.926;2023-05-07T04:05:59;21.61;55.42
65239;SHT30;51827;51.186;6.926;2023-05-07T04:06:59;21.61;55.45
65239;SHT30;51827;51.186;6.926;2023-05-07T04:07:59;21.60;55.44
65239;SHT30;51827;51.186;6.926;2023-05-07T04:09:00;21.61;55.44
65239;SHT30;51827;51.186;6.926;2023-05-07T04:10:00;21.61;55.41
65239;SHT30;51827;51.186;6.926;2023-05-07T04:11:00;21.63;55.44
65239;SHT30;51827;51.186;6.926;2023-05-07T04:12:00;21.61;55.40
65239;SHT30;51827;51.186;6.926;2023-05-07T04:13:00;21.61;55.41
65239;SHT30;51827;51.186;6.926;2023-05-07T04:14:00;21.60;55.40
65239;SHT30;51827;51.186;6.926;2023-05-07T04:15:00;21.61;55.43
65239;SHT30;51827;51.186;6.926;2023-05-07T04:16:01;21.61;55.41
65239;SHT30;51827;51.186;6.926;2023-05-07T04:17:02;21.61;55.41
65239;SHT30;51827;51.186;6.926;2023-05-07T04:18:02;21.60;55.38
65239;SHT30;51827;51.186;6.926;2023-05-07T04:19:02;21.61;55.38
65239;SHT30;51827;51.186;6.926;2023-05-07T04:20:03;21.63;55.38
65239;SHT30;51827;51.186;6.926;2023-05-07T04:21:03;21.60;55.37
65239;SHT30;51827;51.186;6.926;2023-05-07T04:22:04;21.60;55.41
65239;SHT30;51827;51.186;6.926;2023-05-07T04:23:04;21.57;55.36
65239;SHT30;51827;51.186;6.926;2023-05-07T04:24:04;21.61;55.41
65239;SHT30;51827;51.186;6.926;2023-05-07T04:25:04;21.61;55.41
65239;SHT30;51827;51.186;6.926;2023-05-07T04:26:05;21.60;55.33
65239;SHT30;51827;51.186;6.926;2023-05-07T04:27:05;21.58;55.35
65239;SHT30;51827;51.186;6.926;2023-05-07T04:28:05;21.58;55.39
65239;SHT30;51827;51.186;6.926;2023-05-07T04:29:05;21.60;55.39
65239;SHT30;51827;51.186;6.926;2023-05-07T04:30:05;21.61;55.31
65239;SHT30;51827;51.186;6.926;2023-05-07T04:31:06;21.61;55.35
65239;SHT30;51827;51.186;6.926;2023-05-07T04:32:06;21.61;55.34
65239;SHT30;51827;51.186;6.926;2023-05-07T04:33:06;21.60;55.38
65239;SHT30;51827;51.186;6.926;2023-05-07T04:34:06;21.58;55.37
65239;SHT30;51827;51.186;6.926;2023-05-07T04:35:07;21.58;55.35
65239;SHT30;51827;51.186;6.926;2023-05-07T04:36:07;21.57;55.48
65239;SHT30;51827;51.186;6.926;2023-05-07T04:37:07;21.58;55.57
65239;SHT30;51827;51.186;6.926;2023-05-07T04:38:08;21.58;55.54
65239;SHT30;51827;51.186;6.926;2023-05-07T04:39:08;21.57;55.53
65239;SHT30;51827;51.186;6.926;2023-05-07T04:40:08;21.57;55.55
65239;SHT30;51827;51.186;6.926;2023-05-07T04:41:08;21.60;55.49
65239;SHT30;51827;51.186;6.926;2023-05-07T04:42:09;21.57;55.49
65239;SHT30;51827;51.186;6.926;2023-05-07T04:43:09;21.58;55.48
65239;SHT30;51827;51.186;6.926;2023-05-07T04:44:09;21.60;55.46
65239;SHT30;51827;51.186;6.926;2023-05-07T04:45:09;21.57;55.43
65239;SHT30;51827;51.186;6.926;2023-05-07T04:46:09;21.58;55.40
65239;SHT30;51827;51.186;6.926;2023-05-07T04:47:10;21.57;55.42
65239;SHT30;51827;51.186;6.926;2023-05-07T04:48:10;21.57;55.40
65239;SHT30;51827;51.186;6.926;2023-05-07T04:49:10;21.58;55.38
65239;SHT30;51827;51.186;6.926;2023-05-07T04:50:10;21.57;55.39
65239;SHT30;51827;51.186;6.926;2023-05-07T04:51:13;21.57;55.40
65239;SHT30;51827;51.186;6.926;2023-05-07T04:52:14;21.60;55.39
65239;SHT30;51827;51.186;6.926;2023-05-07T04:53:14;21.58;55.39
65239;SHT30;51827;51.186;6.926;2023-05-07T04:54:14;21.57;55.40
65239;SHT30;51827;51.186;6.926;2023-05-07T04:55:14;21.58;55.40
65239;SHT30;51827;51.186;6.926;2023-05-07T04:56:14;21.57;55.36
65239;SHT30;51827;51.186;6.926;2023-05-07T04:57:14;21.57;55.39
65239;SHT30;51827;51.186;6.926;2023-05-07T04:58:15;21.57;55.40
65239;SHT30;51827;51.186;6.926;2023-05-07T04:59:15;21.58;55.36
65239;SHT30;51827;51.186;6.926;2023-05-07T05:00:15;21.56;55.35
65239;SHT30;51827;51.186;6.926;2023-05-07T05:01:15;21.57;55.33
65239;SHT30;51827;51.186;6.926;2023-05-07T05:02:15;21.58;55.33
65239;SHT30;51827;51.186;6.926;2023-05-07T05:03:15;21.57;55.34
65239;SHT30;51827;51.186;6.926;2023-05-07T05:04:16;21.57;55.33
65239;SHT30;51827;51.186;6.926;2023-05-07T05:05:16;21.57;55.37
65239;SHT30;51827;51.186;6.926;2023-05-07T05:06:16;21.57;55.32
65239;SHT30;51827;51.186;6.926;2023-05-07T05:07:16;21.58;55.37
65239;SHT30;51827;51.186;6.926;2023-05-07T05:08:16;21.57;55.32
65239;SHT30;51827;51.186;6.926;2023-05-07T05:09:16;21.57;55.33
65239;SHT30;51827;51.186;6.926;2023-05-07T05:10:17;21.60;55.31
65239;SHT30;51827;51.186;6.926;2023-05-07T05:11:17;21.58;55.26
65239;SHT30;51827;51.186;6.926;2023-05-07T05:12:17;21.57;55.29
65239;SHT30;51827;51.186;6.926;2023-05-07T05:13:17;21.60;55.25
65239;SHT30;51827;51.186;6.926;2023-05-07T05:14:17;21.58;55.24
65239;SHT30;51827;51.186;6.926;2023-05-07T05:15:18;21.61;55.26
65239;SHT30;51827;51.186;6.926;2023-05-07T05:16:18;21.60;55.29
65239;SHT30;51827;51.186;6.926;2023-05-07T05:17:18;21.61;55.19
65239;SHT30;51827;51.186;6.926;2023-05-07T05:18:18;21.58;55.25
65239;SHT30;51827;51.186;6.926;2023-05-07T05:19:18;21.58;55.24
65239;SHT30;51827;51.186;6.926;2023-05-07T05:20:18;21.57;55.21
65239;SHT30;51827;51.186;6.926;2023-05-07T05:21:18;21.58;55.25
65239;SHT30;51827;51.186;6.926;2023-05-07T05:22:19;21.57;55.23
65239;SHT30;51827;51.186;6.926;2023-05-07T05:23:19;21.57;55.20
65239;SHT30;51827;51.186;6.926;2023-05-07T05:24:19;21.58;55.19
65239;SHT30;51827;51.186;6.926;2023-05-07T05:25:19;21.60;55.25
65239;SHT30;51827;51.186;6.926;2023-05-07T05:26:19;21.57;55.21
65239;SHT30;51827;51.186;6.926;2023-05-07T05:27:20;21.58;55.18
65239;SHT30;51827;51.186;6.926;2023-05-07T05:28:20;21.57;55.19
65239;SHT30;51827;51.186;6.926;2023-05-07T05:29:20;21.57;55.21
65239;SHT30;51827;51.186;6.926;2023-05-07T05:30:20;21.58;55.18
65239;SHT30;51827;51.186;6.926;2023-05-07T05:31:20;21.56;55.20
65239;SHT30;51827;51.186;6.926;2023-05-07T05:32:20;21.57;55.22
65239;SHT30;51827;51.186;6.926;2023-05-07T05:33:21;21.57;55.19
65239;SHT30;51827;51.186;6.926;2023-05-07T05:34:21;21.57;55.15
65239;SHT30;51827;51.186;6.926;2023-05-07T05:35:21;21.60;55.18
65239;SHT30;51827;51.186;6.926;2023-05-07T05:36:21;21.57;55.15
65239;SHT30;51827;51.186;6.926;2023-05-07T05:37:22;21.56;55.18
65239;SHT30;51827;51.186;6.926;2023-05-07T05:38:22;21.58;55.13
65239;SHT30;51827;51.186;6.926;2023-05-07T05:39:22;21.58;55.17
65239;SHT30;51827;51.186;6.926;2023-05-07T05:40:22;21.60;55.17
65239;SHT30;51827;51.186;6.926;2023-05-07T05:41:22;21.57;55.17
65239;SHT30;51827;51.186;6.926;2023-05-07T05:42:23;21.60;55.16
65239;SHT30;51827;51.186;6.926;2023-05-07T05:43:23;21.57;55.14
65239;SHT30;51827;51.186;6.926;2023-05-07T05:44:23;21.56;55.11
65239;SHT30;51827;51.186;6.926;2023-05-07T05:45:23;21.58;55.14
65239;SHT30;51827;51.186;6.926;2023-05-07T05:46:23;21.60;55.10
65239;SHT30;51827;51.186;6.926;2023-05-07T05:47:24;21.58;55.14
65239;SHT30;51827;51.186;6.926;2023-05-07T05:48:24;21.56;55.11
65239;SHT30;51827;51.186;6.926;2023-05-07T05:49:24;21.57;55.12
65239;SHT30;51827;51.186;6.926;2023-05-07T05:50:24;21.60;55.12
65239;SHT30;51827;51.186;6.926;2023-05-07T05:51:25;21.60;55.10
65239;SHT30;51827;51.186;6.926;2023-05-07T05:52:25;21.60;55.10
65239;SHT30;51827;51.186;6.926;2023-05-07T05:53:25;21.57;55.11
65239;SHT30;51827;51.186;6.926;2023-05-07T05:54:25;21.57;55.11
65239;SHT30;51827;51.186;6.926;2023-05-07T05:55:25;21.57;55.11
65239;SHT30;51827;51.186;6.926;2023-05-07T05:56:25;21.58;55.11
65239;SHT30;51827;51.186;6.926;2023-05-07T05:57:25;21.58;55.10
65239;SHT30;51827;51.186;6.926;2023-05-07T05:58:26;21.56;55.11
65239;SHT30;51827;51.186;6.926;2023-05-07T05:59:26;21.57;55.10
65239;SHT30;51827;51.186;6.926;2023-05-07T06:00:26;21.57;55.10
65239;SHT30;51827;51.186;6.926;2023-05-07T06:01:27;21.56;55.16
65239;SHT30;51827;51.186;6.926;2023-05-07T06:02:27;21.56;55.20
65239;SHT30;51827;51.186;6.926;2023-05-07T06:03:27;21.58;55.17
65239;SHT30;51827;51.186;6.926;2023-05-07T06:04:27;21.56;55.19
65239;SHT30;51827;51.186;6.926;2023-05-07T06:05:27;21.56;55.17
65239;SHT30;51827;51.186;6.926;2023-05-07T06:06:27;21.58;55.19
65239;SHT30;51827;51.186;6.926;2023-05-07T06:07:28;21.56;55.18
65239;SHT30;51827;51.186;6.926;2023-05-07T06:08:31;21.58;55.16
65239;SHT30;51827;51.186;6.926;2023-05-07T06:09:31;21.58;55.18
65239;SHT30;51827;51.186;6.926;2023-05-07T06:10:31;21.57;55.20
65239;SHT30;51827;51.186;6.926;2023-05-07T06:11:31;21.58;55.14
65239;SHT30;51827;51.186;6.926;2023-05-07T06:12:32;21.58;55.18
65239;SHT30;51827;51.186;6.926;2023-05-07T06:13:32;21.56;55.20
65239;SHT30;51827;51.186;6.926;2023-05-07T06:14:32;21.58;55.26
65239;SHT30;51827;51.186;6.926;2023-05-07T06:15:32;21.61;55.31
65239;SHT30;51827;51.186;6.926;2023-05-07T06:16:32;21.58;55.28
65239;SHT30;51827;51.186;6.926;2023-05-07T06:17:32;21.57;55.31
65239;SHT30;51827;51.186;6.926;2023-05-07T06:18:33;21.60;55.36
65239;SHT30;51827;51.186;6.926;2023-05-07T06:19:33;21.57;55.40
65239;SHT30;51827;51.186;6.926;2023-05-07T06:20:33;21.58;55.32